Time;durP1;ratioP1;P1;durP2;ratioP2;P2;SDS_P1;SDS_P2;PMS_P1;PMS_P2;Temp;Humidity;BMP_temperature;BMP_pressure;BME280_temperature;BME280_humidity;BME280_pressure;Samples;Min_cycle;Max_cycle;Signal;HPM_P1;HPM_P2
2023/09/22 00:00:59;;;;;;;30.27;26.43;;;17.00;99.90;;;;;;4936823;29;20031;-83
2023/09/22 00:03:26;;;;;;;27.10;24.17;;;17.00;99.90;;;;;;4967747;28;20039;-82
2023/09/22 00:05:52;;;;;;;28.10;23.90;;;17.00;99.90;;;;;;4954297;29;20057;-83
2023/09/22 00:08:18;;;;;;;32.92;27.73;;;17.00;99.90;;;;;;4968718;28;20034;-82
2023/09/22 00:10:45;;;;;;;28.98;25.63;;;17.00;99.90;;;;;;4956752;29;20050;-82
2023/09/22 00:13:14;;;;;;;32.45;26.50;;;16.90;99.90;;;;;;4957969;29;20023;-80
2023/09/22 00:15:40;;;;;;;30.55;25.80;;;16.90;99.90;;;;;;4940805;29;20153;-81
2023/09/22 00:18:06;;;;;;;32.60;27.45;;;16.90;99.90;;;;;;4949765;29;20488;-82
2023/09/22 00:20:32;;;;;;;31.95;27.10;;;16.90;99.90;;;;;;4957258;29;20027;-82
2023/09/22 00:22:58;;;;;;;30.55;26.10;;;16.90;99.90;;;;;;4957449;28;20078;-81
2023/09/22 00:25:23;;;;;;;28.75;25.58;;;16.80;99.90;;;;;;4940288;29;20070;-82
2023/09/22 00:27:49;;;;;;;29.05;25.92;;;16.90;99.90;;;;;;4957452;29;20035;-81
2023/09/22 00:30:15;;;;;;;36.45;27.17;;;16.80;99.90;;;;;;4957017;29;20051;-82
2023/09/22 00:32:41;;;;;;;32.78;25.95;;;16.80;99.90;;;;;;4957472;29;20051;-82
2023/09/22 00:35:12;;;;;;;30.95;25.70;;;16.90;99.90;;;;;;4957352;29;20031;-82
2023/09/22 00:37:40;;;;;;;31.10;26.55;;;16.90;99.90;;;;;;4957585;29;20030;-83
2023/09/22 00:40:12;;;;;;;28.92;25.55;;;16.90;99.90;;;;;;4939978;29;20031;-81
2023/09/22 00:42:38;;;;;;;32.80;28.05;;;16.80;99.90;;;;;;4957864;29;20020;-83
2023/09/22 00:45:04;;;;;;;34.95;28.45;;;16.80;99.90;;;;;;4958640;29;20098;-82
2023/09/22 00:47:31;;;;;;;39.40;27.88;;;16.80;99.90;;;;;;4962252;29;20038;-82
2023/09/22 00:49:57;;;;;;;33.15;27.15;;;16.80;99.90;;;;;;4967328;29;20469;-82
2023/09/22 00:52:24;;;;;;;32.25;28.30;;;16.70;99.90;;;;;;4952988;29;20023;-83
2023/09/22 00:54:50;;;;;;;32.40;28.85;;;16.70;99.90;;;;;;4958348;29;20512;-82
2023/09/22 00:57:17;;;;;;;32.95;27.83;;;16.80;99.90;;;;;;4971603;29;20027;-82
2023/09/22 00:59:44;;;;;;;34.85;26.77;;;16.80;99.90;;;;;;4953943;29;20503;-83
2023/09/22 01:02:13;;;;;;;29.73;26.63;;;16.90;99.90;;;;;;4957328;29;20134;-83
2023/09/22 01:04:39;;;;;;;34.67;27.80;;;17.00;99.90;;;;;;4956988;29;20031;-83
2023/09/22 01:07:06;;;;;;;31.30;26.00;;;17.00;99.90;;;;;;4956769;29;20027;-83
2023/09/22 01:09:32;;;;;;;31.47;28.10;;;17.00;99.90;;;;;;4956329;29;20024;-81
2023/09/22 01:11:58;;;;;;;32.78;27.83;;;17.00;99.90;;;;;;4956741;29;20266;-82
2023/09/22 01:14:23;;;;;;;30.23;26.02;;;17.10;99.90;;;;;;4956561;29;20051;-82
2023/09/22 01:16:51;;;;;;;32.72;26.77;;;17.10;99.90;;;;;;4956632;29;20035;-82
2023/09/22 01:19:18;;;;;;;33.42;28.02;;;17.10;99.90;;;;;;4937544;29;20023;-82
2023/09/22 01:21:44;;;;;;;30.20;26.90;;;17.10;99.90;;;;;;4939279;29;20467;-83
2023/09/22 01:24:11;;;;;;;31.05;27.05;;;17.20;99.90;;;;;;4939318;29;20492;-83
2023/09/22 01:26:38;;;;;;;35.25;27.88;;;17.20;99.90;;;;;;4939098;29;20499;-82
2023/09/22 01:29:04;;;;;;;31.70;27.40;;;17.30;99.90;;;;;;4956436;28;20046;-83
2023/09/22 01:31:30;;;;;;;38.92;28.65;;;17.40;99.90;;;;;;4956254;29;20499;-83
2023/09/22 01:33:56;;;;;;;36.22;26.55;;;17.50;99.90;;;;;;4970951;28;20158;-82
2023/09/22 01:36:22;;;;;;;33.28;27.70;;;17.50;99.90;;;;;;4956108;29;20110;-83
2023/09/22 01:38:48;;;;;;;36.75;28.13;;;17.60;99.90;;;;;;4956519;29;20027;-82
2023/09/22 01:41:14;;;;;;;31.40;26.85;;;17.60;99.90;;;;;;4939051;29;20028;-82
2023/09/22 01:43:40;;;;;;;33.55;26.58;;;17.50;99.90;;;;;;4956121;29;20484;-83
2023/09/22 01:46:06;;;;;;;35.30;29.00;;;17.50;99.90;;;;;;4955975;29;20023;-82
2023/09/22 01:48:32;;;;;;;30.52;26.35;;;17.40;99.90;;;;;;4925751;29;20023;-83
2023/09/22 01:51:02;;;;;;;32.03;28.33;;;17.30;99.90;;;;;;4955633;29;20041;-82
2023/09/22 01:53:28;;;;;;;32.70;27.65;;;17.20;99.90;;;;;;4955806;29;20035;-82
2023/09/22 01:55:54;;;;;;;32.20;26.95;;;17.10;99.90;;;;;;4970476;28;20106;-82
2023/09/22 01:58:20;;;;;;;41.35;29.13;;;17.00;99.90;;;;;;4935444;29;20027;-81
2023/09/22 02:00:48;;;;;;;46.72;30.30;;;17.00;99.90;;;;;;4955706;29;20066;-81
2023/09/22 02:03:14;;;;;;;33.90;28.08;;;17.00;99.90;;;;;;4955858;29;20023;-82
2023/09/22 02:05:40;;;;;;;37.55;29.02;;;17.00;99.90;;;;;;4955831;29;20081;-82
2023/09/22 02:08:08;;;;;;;35.88;29.15;;;17.00;99.90;;;;;;4955923;29;20030;-82
2023/09/22 02:10:34;;;;;;;;;;;16.90;99.90;;;;;;4955946;29;20035;-83
2023/09/22 02:13:00;;;;;;;35.47;27.23;;;16.90;99.90;;;;;;4956905;29;19922;-80
2023/09/22 02:15:26;;;;;;;37.95;27.88;;;16.80;99.90;;;;;;4964561;29;20089;-83
2023/09/22 02:17:52;;;;;;;34.83;30.58;;;16.70;99.90;;;;;;4955262;29;20039;-82
2023/09/22 02:20:22;;;;;;;35.43;29.63;;;16.70;99.90;;;;;;4955498;29;20023;-83
2023/09/22 02:22:53;;;;;;;40.80;30.85;;;16.60;99.90;;;;;;4955495;28;20093;-83
2023/09/22 02:25:20;;;;;;;40.35;31.02;;;16.70;99.90;;;;;;4956661;29;20016;-82
2023/09/22 02:27:47;;;;;;;45.45;30.65;;;16.70;99.90;;;;;;4967001;29;20028;-82
2023/09/22 02:30:14;;;;;;;46.80;31.25;;;16.70;99.90;;;;;;4943508;29;20421;-82
2023/09/22 02:32:48;;;;;;;37.70;29.65;;;16.70;99.90;;;;;;4955643;28;20103;-82
2023/09/22 02:35:15;;;;;;;45.22;32.03;;;16.70;99.90;;;;;;4938019;29;20027;-83
2023/09/22 02:37:41;;;;;;;48.53;32.22;;;16.70;99.90;;;;;;4955683;29;20035;-85
2023/09/22 02:40:08;;;;;;;46.72;33.17;;;16.70;99.90;;;;;;4955057;29;20030;-83
2023/09/22 02:42:34;;;;;;;40.53;31.57;;;16.70;99.90;;;;;;4955446;29;20019;-82
2023/09/22 02:45:00;;;;;;;39.50;32.03;;;16.70;99.90;;;;;;4957228;29;20027;-84
2023/09/22 02:47:27;;;;;;;44.00;31.48;;;16.70;99.90;;;;;;4973024;29;20098;-82
2023/09/22 02:49:54;;;;;;;;;;;16.80;99.90;;;;;;4962456;29;20073;-82
2023/09/22 02:52:20;;;;;;;41.30;30.98;;;16.90;99.90;;;;;;4940724;29;19907;-83
2023/09/22 02:54:46;;;;;;;40.88;31.80;;;16.90;99.90;;;;;;4972309;28;20047;-82
2023/09/22 02:57:11;;;;;;;44.70;31.25;;;16.90;99.90;;;;;;4942233;29;20030;-82
2023/09/22 02:59:55;;;;;;;40.92;32.40;;;17.00;99.90;;;;;;4954775;29;20034;-82
2023/09/22 03:02:21;;;;;;;40.47;32.33;;;17.00;99.90;;;;;;4956797;29;20046;-82
2023/09/22 03:04:47;;;;;;;39.13;31.67;;;16.90;99.90;;;;;;4956443;29;20031;-82
2023/09/22 03:07:13;;;;;;;45.50;32.03;;;16.90;99.90;;;;;;4953427;29;20093;-82
2023/09/22 03:09:39;;;;;;;47.80;35.17;;;16.90;99.90;;;;;;4937343;29;20037;-82
2023/09/22 03:12:08;;;;;;;44.63;34.67;;;16.80;99.90;;;;;;4955310;29;20452;-85
2023/09/22 03:14:34;;;;;;;47.13;33.60;;;16.80;99.90;;;;;;4953711;29;20117;-84
2023/09/22 03:17:00;;;;;;;49.38;32.92;;;16.80;99.90;;;;;;4938406;29;20441;-84
2023/09/22 03:19:26;;;;;;;44.63;33.30;;;16.80;99.90;;;;;;4938205;29;20027;-83
2023/09/22 03:21:52;;;;;;;50.05;32.67;;;16.70;99.90;;;;;;4942280;29;20397;-83
2023/09/22 03:24:18;;;;;;;40.05;32.42;;;16.70;99.90;;;;;;4955725;28;20031;-83
2023/09/22 03:26:46;;;;;;;46.05;34.25;;;16.70;99.90;;;;;;4960648;29;20075;-83
2023/09/22 03:29:12;;;;;;;42.20;34.33;;;16.70;99.90;;;;;;4962397;29;20132;-83
2023/09/22 03:31:38;;;;;;;45.55;34.25;;;16.70;99.90;;;;;;4959884;29;20035;-82
2023/09/22 03:34:04;;;;;;;51.35;33.70;;;16.60;99.90;;;;;;4969400;28;20421;-82
2023/09/22 03:36:35;;;;;;;43.85;33.20;;;16.60;99.90;;;;;;4953265;29;20031;-84
2023/09/22 03:39:02;;;;;;;42.67;32.97;;;16.60;99.90;;;;;;4954334;29;20093;-84
2023/09/22 03:41:28;;;;;;;38.38;32.15;;;16.60;99.90;;;;;;4954445;29;20019;-82
2023/09/22 03:43:55;;;;;;;46.95;35.50;;;16.60;99.90;;;;;;4936982;29;20037;-82
2023/09/22 03:46:25;;;;;;;39.17;34.38;;;16.60;99.90;;;;;;4954269;29;20079;-83
2023/09/22 03:48:51;;;;;;;42.67;34.00;;;16.60;99.90;;;;;;4936675;29;20032;-85
2023/09/22 03:51:16;;;;;;;40.25;33.55;;;16.70;99.90;;;;;;4961929;28;20039;-83
2023/09/22 03:53:43;;;;;;;41.75;32.83;;;16.70;99.90;;;;;;4939038;29;20110;-84
2023/09/22 03:56:09;;;;;;;44.47;34.50;;;16.70;99.90;;;;;;4952341;29;20115;-83
2023/09/22 03:58:34;;;;;;;47.08;32.03;;;16.80;99.90;;;;;;4959170;29;20063;-82
2023/09/22 04:01:08;;;;;;;45.72;32.35;;;16.80;99.90;;;;;;4943928;29;20031;-83
2023/09/22 04:03:37;;;;;;;37.60;31.17;;;16.90;99.90;;;;;;4965236;29;20030;-82
2023/09/22 04:06:05;;;;;;;36.22;31.48;;;17.00;99.90;;;;;;4949789;29;20027;-88
2023/09/22 04:08:31;;;;;;;;;;;17.10;99.90;;;;;;4961525;29;20023;-84
2023/09/22 04:10:56;;;;;;;38.38;28.92;;;17.30;99.90;;;;;;4958985;29;19977;-82
2023/09/22 04:13:24;;;;;;;36.80;28.83;;;17.50;99.90;;;;;;4963090;29;20055;-83
2023/09/22 04:15:58;;;;;;;33.17;29.30;;;17.70;99.90;;;;;;4947009;29;20027;-84
2023/09/22 04:18:28;;;;;;;41.65;29.25;;;17.90;99.90;;;;;;4956437;29;20042;-85
2023/09/22 04:20:55;;;;;;;39.88;29.65;;;17.90;99.90;;;;;;4941239;29;20047;-84
2023/09/22 04:23:22;;;;;;;38.38;30.13;;;17.90;99.90;;;;;;4956027;28;20027;-84
2023/09/22 04:25:48;;;;;;;37.28;29.95;;;17.80;99.90;;;;;;4954694;29;20493;-82
2023/09/22 04:28:17;;;;;;;42.00;29.63;;;17.70;99.90;;;;;;4934366;29;20489;-83
2023/09/22 04:30:43;;;;;;;38.85;30.92;;;17.70;99.90;;;;;;4945838;29;20056;-82
2023/09/22 04:33:12;;;;;;;38.33;30.40;;;17.70;99.90;;;;;;4956242;29;20023;-84
2023/09/22 04:35:40;;;;;;;36.33;29.00;;;17.60;99.90;;;;;;4950058;29;20051;-82
2023/09/22 04:38:06;;;;;;;36.33;31.20;;;17.60;99.90;;;;;;4951273;29;20566;-83
2023/09/22 04:40:36;;;;;;;38.35;30.45;;;17.60;99.90;;;;;;4954971;29;20297;-84
2023/09/22 04:43:05;;;;;;;34.72;29.25;;;17.50;99.90;;;;;;4953969;29;20026;-82
2023/09/22 04:45:31;;;;;;;33.03;28.38;;;17.60;99.90;;;;;;4953936;29;20030;-83
2023/09/22 04:47:57;;;;;;;35.00;28.15;;;17.50;99.90;;;;;;4953759;29;20028;-84
2023/09/22 04:50:23;;;;;;;32.58;28.17;;;17.50;99.90;;;;;;4953589;29;20500;-84
2023/09/22 04:52:49;;;;;;;32.22;26.70;;;17.60;99.90;;;;;;4954120;29;20036;-85
2023/09/22 04:55:20;;;;;;;30.58;25.70;;;17.60;99.90;;;;;;4957100;28;20030;-85
2023/09/22 04:57:46;;;;;;;32.42;26.15;;;17.60;99.90;;;;;;4960793;29;20031;-83
2023/09/22 05:00:16;;;;;;;38.85;27.80;;;17.60;99.90;;;;;;4954204;29;20031;-85
2023/09/22 05:02:45;;;;;;;35.80;27.27;;;17.60;99.90;;;;;;4957408;29;20046;-84
2023/09/22 05:05:12;;;;;;;32.30;27.80;;;17.70;99.90;;;;;;4971580;28;20035;-83
2023/09/22 05:07:39;;;;;;;35.53;30.37;;;17.70;99.90;;;;;;4957151;29;20107;-83
2023/09/22 05:10:05;;;;;;;31.38;26.15;;;17.70;99.90;;;;;;4939878;29;20285;-82
2023/09/22 05:12:31;;;;;;;37.30;28.05;;;17.80;99.90;;;;;;4957683;29;20117;-84
2023/09/22 05:14:58;;;;;;;34.35;27.80;;;17.80;99.90;;;;;;4936330;29;20534;-83
2023/09/22 05:17:24;;;;;;;33.15;28.30;;;17.80;99.90;;;;;;4953941;29;20019;-83
2023/09/22 05:19:50;;;;;;;36.17;28.92;;;17.90;99.90;;;;;;4956886;29;20028;-84
2023/09/22 05:22:17;;;;;;;35.50;27.67;;;17.90;99.90;;;;;;4939671;28;20027;-83
2023/09/22 05:24:44;;;;;;;38.65;28.95;;;18.00;99.90;;;;;;4956440;29;20023;-85
2023/09/22 05:27:10;;;;;;;37.85;28.02;;;18.00;99.90;;;;;;4933157;29;20081;-84
2023/09/22 05:29:36;;;;;;;37.27;28.60;;;18.00;99.90;;;;;;4940212;29;20055;-86
2023/09/22 05:32:02;;;;;;;36.45;27.83;;;18.10;99.90;;;;;;4956163;29;20042;-85
2023/09/22 05:34:28;;;;;;;34.53;28.20;;;18.10;99.90;;;;;;4940315;29;20058;-85
2023/09/22 05:36:54;;;;;;;38.95;29.38;;;18.20;99.90;;;;;;4965148;29;20015;-83
2023/09/22 05:39:20;;;;;;;38.63;29.52;;;18.20;99.90;;;;;;4966346;29;20581;-84
2023/09/22 05:41:49;;;;;;;36.95;29.08;;;18.30;99.90;;;;;;4943839;29;20027;-85
2023/09/22 05:44:18;;;;;;;34.92;30.40;;;18.30;99.90;;;;;;4956846;29;20050;-85
2023/09/22 05:46:44;;;;;;;42.05;36.53;;;18.40;99.90;;;;;;4956818;29;20079;-85
2023/09/22 05:49:14;;;;;;;42.95;29.95;;;18.50;99.90;;;;;;4956512;29;20508;-85
2023/09/22 05:51:43;;;;;;;38.72;31.80;;;18.60;99.90;;;;;;4940177;29;20069;-85
2023/09/22 05:54:10;;;;;;;37.53;31.58;;;18.70;99.90;;;;;;4959308;29;20078;-79
2023/09/22 05:56:36;;;;;;;41.97;30.97;;;18.80;99.90;;;;;;4959195;29;20023;-83
2023/09/22 05:59:06;;;;;;;39.47;33.78;;;18.80;99.80;;;;;;4939182;29;20102;-84
2023/09/22 06:01:36;;;;;;;40.70;31.27;;;18.90;99.60;;;;;;4951452;29;20015;-82
2023/09/22 06:04:04;;;;;;;51.65;35.03;;;18.90;99.40;;;;;;4956266;29;20031;-87
2023/09/22 06:06:32;;;;;;;49.90;33.33;;;19.00;99.40;;;;;;4955681;28;20042;-87
2023/09/22 06:09:03;;;;;;;39.25;31.08;;;19.10;99.20;;;;;;4956481;28;20094;-89
2023/09/22 06:11:29;;;;;;;43.08;32.58;;;19.10;99.10;;;;;;4957649;28;20105;-88
2023/09/22 06:13:55;;;;;;;45.92;32.22;;;19.20;98.80;;;;;;4939150;29;20106;-86
2023/09/22 06:16:23;;;;;;;45.20;31.50;;;19.30;98.60;;;;;;4956248;29;20125;-87
2023/09/22 06:18:49;;;;;;;54.97;33.50;;;19.30;98.30;;;;;;4950841;29;20030;-89
2023/09/22 06:21:15;;;;;;;133.20;44.33;;;19.40;98.20;;;;;;4940664;29;20043;-87
2023/09/22 06:23:41;;;;;;;37.65;29.63;;;19.50;98.10;;;;;;4952179;29;20035;-87
2023/09/22 06:26:10;;;;;;;44.47;31.80;;;19.60;97.70;;;;;;4975722;29;20031;-84
2023/09/22 06:28:42;;;;;;;40.53;32.13;;;19.60;97.30;;;;;;4942224;29;20170;-88
2023/09/22 06:31:08;;;;;;;59.80;34.60;;;19.70;97.10;;;;;;4941461;29;20043;-85
2023/09/22 06:33:34;;;;;;;64.85;34.40;;;19.80;97.00;;;;;;4954893;28;20572;-86
2023/09/22 06:36:00;;;;;;;516.85;127.22;;;19.90;97.00;;;;;;4939258;29;20059;-87
2023/09/22 06:38:25;;;;;;;104.03;43.53;;;20.00;96.90;;;;;;4953084;28;20031;-89
2023/09/22 06:40:55;;;;;;;45.17;31.58;;;20.10;96.90;;;;;;4933601;29;20027;-87
2023/09/22 06:43:24;;;;;;;347.48;88.22;;;20.10;96.20;;;;;;4957535;28;20019;-87
2023/09/22 06:45:58;;;;;;;54.00;32.78;;;20.20;96.20;;;;;;4937940;29;20078;-86
2023/09/22 06:48:28;;;;;;;42.22;31.92;;;20.30;96.10;;;;;;4962658;29;20041;-91
2023/09/22 06:50:57;;;;;;;90.15;39.88;;;20.30;95.80;;;;;;4958356;28;20134;-87
2023/09/22 06:53:24;;;;;;;84.72;37.53;;;20.40;95.60;;;;;;4940138;29;20112;-90
2023/09/22 06:56:09;;;;;;;368.85;78.55;;;20.50;95.50;;;;;;4959260;29;20083;-88
2023/09/22 06:58:40;;;;;;;42.60;30.90;;;20.70;95.50;;;;;;4941135;28;20039;-84
2023/09/22 07:01:16;;;;;;;50.10;33.88;;;20.80;95.10;;;;;;4952958;29;20053;-85
2023/09/22 07:03:44;;;;;;;123.97;43.88;;;20.90;94.80;;;;;;4956109;29;20015;-85
2023/09/22 07:06:13;;;;;;;;;;;20.90;94.20;;;;;;4957309;29;20118;-86
2023/09/22 07:08:39;;;;;;;48.13;28.40;;;21.00;94.50;;;;;;4938410;29;20361;-86
2023/09/22 07:11:10;;;;;;;40.15;28.77;;;21.10;94.10;;;;;;4958179;29;20493;-84
2023/09/22 07:13:37;;;;;;;37.85;24.35;;;21.20;93.60;;;;;;4948461;29;20034;-85
2023/09/22 07:16:03;;;;;;;30.40;23.08;;;21.80;92.90;;;;;;4938565;29;20484;-84
2023/09/22 07:18:29;;;;;;;35.90;24.77;;;23.10;91.00;;;;;;4954028;28;20035;-80
2023/09/22 07:20:55;;;;;;;40.63;24.98;;;24.70;87.80;;;;;;4953872;29;20106;-80
2023/09/22 07:23:22;;;;;;;42.58;26.88;;;26.50;82.60;;;;;;4969052;28;20484;-80
2023/09/22 07:25:58;;;;;;;;;;;28.20;75.90;;;;;;4954649;29;20031;-78
2023/09/22 07:28:25;;;;;;;35.33;24.92;;;29.50;77.60;;;;;;4953270;29;20411;-80
2023/09/22 07:30:51;;;;;;;37.88;24.08;;;30.40;66.10;;;;;;4968973;28;20279;-86
2023/09/22 07:33:17;;;;;;;38.17;24.48;;;30.40;64.20;;;;;;4957655;29;20536;-87
2023/09/22 07:35:46;;;;;;;36.35;24.40;;;30.80;63.20;;;;;;4956898;29;20023;-86
2023/09/22 07:38:11;;;;;;;51.33;28.38;;;32.60;62.80;;;;;;4955970;29;20031;-87
2023/09/22 07:40:41;;;;;;;31.33;22.37;;;32.60;59.40;;;;;;4955203;29;20500;-85
2023/09/22 07:43:07;;;;;;;23.08;16.58;;;33.50;55.70;;;;;;4937248;29;20504;-83
2023/09/22 07:45:33;;;;;;;;;;;33.30;51.60;;;;;;4937680;29;20476;-82
2023/09/22 07:47:59;;;;;;;27.95;17.60;;;32.50;54.70;;;;;;4952984;29;19921;-83
2023/09/22 07:50:25;;;;;;;24.45;16.90;;;32.40;53.80;;;;;;4967018;28;20042;-82
2023/09/22 07:52:51;;;;;;;22.58;15.25;;;32.90;52.50;;;;;;4937108;29;20388;-83
2023/09/22 07:55:18;;;;;;;17.30;12.20;;;33.00;50.10;;;;;;4968786;28;20038;-84
2023/09/22 07:57:48;;;;;;;19.02;12.05;;;32.40;49.20;;;;;;4954354;29;20019;-86
2023/09/22 08:00:14;;;;;;;15.80;11.45;;;31.90;49.50;;;;;;4963499;28;20027;-85
2023/09/22 08:02:41;;;;;;;14.00;10.98;;;31.50;49.40;;;;;;4945108;29;20119;-85
2023/09/22 08:05:07;;;;;;;14.23;10.82;;;31.40;49.10;;;;;;4970479;29;20031;-89
2023/09/22 08:07:33;;;;;;;13.13;10.77;;;31.50;48.80;;;;;;4964822;29;20023;-87
2023/09/22 08:10:00;;;;;;;12.17;9.20;;;32.10;48.70;;;;;;4961643;29;20103;-83
2023/09/22 08:12:25;;;;;;;10.55;8.23;;;32.70;46.50;;;;;;4938706;29;20446;-83
2023/09/22 08:14:51;;;;;;;12.57;8.90;;;32.10;46.20;;;;;;4962789;29;20027;-81
2023/09/22 08:17:17;;;;;;;29.63;11.23;;;31.60;47.20;;;;;;4980391;28;20031;-83
2023/09/22 08:19:43;;;;;;;16.77;10.55;;;32.00;47.90;;;;;;4954641;28;20103;-81
2023/09/22 08:22:10;;;;;;;16.87;9.80;;;33.20;46.60;;;;;;4953962;28;20470;-83
2023/09/22 08:24:37;;;;;;;15.00;9.63;;;34.50;44.60;;;;;;4962910;28;20029;-81
2023/09/22 08:27:02;;;;;;;12.93;8.50;;;35.20;43.20;;;;;;4968972;28;20031;-83
2023/09/22 08:29:30;;;;;;;;;;;35.50;41.90;;;;;;4954986;28;20075;-86
2023/09/22 08:31:58;;;;;;;14.35;8.95;;;35.50;44.10;;;;;;4965046;28;20004;-87
2023/09/22 08:34:25;;;;;;;12.13;8.63;;;36.10;41.60;;;;;;4962277;28;20105;-89
2023/09/22 08:36:51;;;;;;;13.57;8.52;;;36.20;40.00;;;;;;4962965;28;20031;-93
2023/09/22 08:39:17;;;;;;;18.10;9.90;;;35.20;40.50;;;;;;4949997;29;20389;-95
2023/09/22 08:41:44;;;;;;;11.23;7.70;;;35.50;41.20;;;;;;4970126;29;20035;-92
2023/09/22 08:44:10;;;;;;;17.77;10.20;;;36.40;39.10;;;;;;4964819;29;20016;-90
2023/09/22 08:46:37;;;;;;;15.50;7.80;;;37.00;39.80;;;;;;4948513;29;20554;-94
2023/09/22 08:49:05;;;;;;;10.23;9.25;;;37.80;39.90;;;;;;4979330;28;20034;-91
2023/09/22 08:51:31;;;;;;;13.68;7.28;;;;;;;;;;4966409;28;20535;-84
2023/09/22 08:53:57;;;;;;;;;;;;;;;;;;4946294;29;20024;-88
2023/09/22 08:56:24;;;;;;;8.75;6.88;;;;;;;;;;4943329;29;20391;-85
2023/09/22 08:58:51;;;;;;;23.67;8.80;;;;;;;;;;4937670;29;20035;-86
2023/09/22 09:01:17;;;;;;;55.38;12.93;;;;;;;;;;4939223;29;20027;-89
2023/09/22 09:03:44;;;;;;;59.03;16.02;;;;;;;;;;4937798;29;20042;-89
2023/09/22 09:06:14;;;;;;;14.07;7.47;;;;;;;;;;4933564;29;20565;-90
2023/09/22 09:08:40;;;;;;;9.32;6.93;;;;;;;;;;4938904;29;20134;-89
2023/09/22 09:11:07;;;;;;;;;;;;;;;;;;4941169;29;20036;-86
2023/09/22 09:13:34;;;;;;;18.17;8.32;;;;;;;;;;4939704;29;19906;-86
2023/09/22 09:16:08;;;;;;;16.65;7.40;;;;;;;;;;4939980;29;20059;-91
2023/09/22 09:18:34;;;;;;;23.00;8.30;;;;;;;;;;4923268;29;20035;-88
2023/09/22 09:21:09;;;;;;;12.60;7.07;;;;;;;;;;4940398;29;20119;-89
2023/09/22 09:23:35;;;;;;;8.35;6.78;;;;;;;;;;4941630;29;20588;-85
2023/09/22 09:26:02;;;;;;;28.42;10.15;;;;;;;;;;4936385;29;20107;-87
2023/09/22 09:28:33;;;;;;;16.05;7.03;;;;;;;;;;4926174;29;20046;-88
2023/09/22 09:31:00;;;;;;;10.23;5.88;;;;;;;;;;4952101;29;20058;-88
2023/09/22 09:33:28;;;;;;;24.02;8.63;;;;;;;;;;4957535;29;20012;-87
2023/09/22 09:35:55;;;;;;;7.63;5.75;;;;;;;;;;4940048;29;20031;-84
2023/09/22 09:38:26;;;;;;;11.00;5.93;;;;;;;;;;4937624;29;20035;-83
2023/09/22 09:40:53;;;;;;;14.48;6.95;;;;;;;;;;4957097;28;20047;-84
2023/09/22 09:43:20;;;;;;;8.15;5.82;;;;;;;;;;4957552;29;20027;-84
2023/09/22 09:45:48;;;;;;;10.20;5.53;;;;;;;;;;4939700;29;20031;-84
2023/09/22 09:48:16;;;;;;;12.85;6.88;;;;;;;;;;4956220;29;20396;-86
2023/09/22 09:50:47;;;;;;;9.60;5.75;;;;;;;;;;4939231;29;20043;-87
2023/09/22 09:53:36;;;;;;;11.73;5.53;;;;;;;;;;4942657;29;20031;-86
2023/09/22 09:56:05;;;;;;;13.02;6.82;;;;;;;;;;4940630;28;20065;-84
2023/09/22 09:58:32;;;;;;;6.50;5.35;;;;;;;;;;4939268;29;20042;-85
2023/09/22 10:01:00;;;;;;;108.70;14.45;;;;;;;;;;4927927;29;20027;-86
2023/09/22 10:03:27;;;;;;;10.85;5.72;;;;;;;;;;4958452;29;20094;-84
2023/09/22 10:05:55;;;;;;;15.30;6.13;;;;;;;;;;4949729;29;20090;-88
2023/09/22 10:08:23;;;;;;;12.05;5.82;;;;;;;;;;4968699;29;20023;-86
2023/09/22 10:10:50;;;;;;;10.43;6.18;;;;;;;;;;4938863;29;20046;-85
2023/09/22 10:13:17;;;;;;;16.52;6.15;;;;;;;;;;4956670;29;20145;-84
2023/09/22 10:16:03;;;;;;;53.63;9.55;;;;;;;;;;4940255;29;20031;-92
2023/09/22 10:18:29;;;;;;;;;;;;;;;;;;4959364;29;20026;-89
2023/09/22 10:20:55;;;;;;;8.80;5.95;;;;;;;;;;4963403;29;19918;-90
2023/09/22 10:23:27;;;;;;;9.23;6.10;;;;;;;;;;4975899;28;20038;-89
2023/09/22 10:26:05;;;;;;;8.27;6.93;;;39.10;34.20;;;;;;4949874;29;20285;-91
2023/09/22 10:28:31;;;;;;;8.95;6.50;;;;;;;;;;4965695;29;20059;-90
2023/09/22 10:30:57;;;;;;;10.60;7.23;;;;;;;;;;4964080;28;20050;-88
2023/09/22 10:33:23;;;;;;;9.55;6.88;;;30.10;39.90;;;;;;4940659;29;20028;-87
2023/09/22 10:35:50;;;;;;;12.50;7.40;;;27.90;41.40;;;;;;4958587;28;20030;-86
2023/09/22 10:38:19;;;;;;;13.18;8.20;;;27.50;42.00;;;;;;4940943;29;20493;-86
2023/09/22 10:41:00;;;;;;;10.18;6.88;;;27.40;42.20;;;;;;4941982;29;20035;-87
2023/09/22 10:43:26;;;;;;;9.85;7.75;;;27.30;42.30;;;;;;4937889;29;20032;-87
2023/09/22 10:45:53;;;;;;;7.95;7.25;;;27.20;42.40;;;;;;4957055;28;20023;-88
2023/09/22 10:48:19;;;;;;;;;;;27.10;42.70;;;;;;4956542;28;20082;-88
2023/09/22 10:50:49;;;;;;;13.20;7.63;;;27.00;42.60;;;;;;4955701;29;19954;-88
2023/09/22 10:53:15;;;;;;;9.18;7.32;;;26.80;43.20;;;;;;4957805;28;20031;-88
2023/09/22 10:55:43;;;;;;;11.35;7.82;;;26.70;43.60;;;;;;4941319;29;20038;-87
2023/09/22 10:58:14;;;;;;;10.65;8.27;;;26.60;43.20;;;;;;4956641;29;20548;-87
2023/09/22 11:00:53;;;;;;;7.68;6.70;;;26.50;43.30;;;;;;4959131;28;20047;-86
2023/09/22 11:03:19;;;;;;;8.00;6.38;;;26.40;43.40;;;;;;4941425;29;20091;-87
2023/09/22 11:05:55;;;;;;;8.40;6.57;;;26.20;43.30;;;;;;4959618;28;20102;-89
2023/09/22 11:08:22;;;;;;;11.93;7.35;;;25.90;43.50;;;;;;4957417;28;20039;-91
2023/09/22 11:10:49;;;;;;;;;;;25.80;44.00;;;;;;4954640;29;20086;-90
2023/09/22 11:13:15;;;;;;;10.07;7.05;;;25.70;43.90;;;;;;4958395;29;19922;-86
2023/09/22 11:15:49;;;;;;;8.37;6.83;;;25.70;44.20;;;;;;4961475;28;20039;-89
2023/09/22 11:18:33;;;;;;;8.90;7.32;;;25.60;44.30;;;;;;4943061;29;20418;-92
2023/09/22 11:21:10;;;;;;;8.88;7.78;;;25.50;44.50;;;;;;4943077;29;20139;-91
2023/09/22 11:23:38;;;;;;;10.38;6.55;;;25.60;44.80;;;;;;4939624;29;20107;-94
2023/09/22 11:26:09;;;;;;;9.60;7.07;;;25.60;44.30;;;;;;4953036;29;20031;-90
2023/09/22 11:28:45;;;;;;;8.07;5.97;;;25.50;44.60;;;;;;4931573;29;20077;-90
2023/09/22 11:31:15;;;;;;;7.80;6.97;;;25.50;44.60;;;;;;4951130;29;20154;-84
2023/09/22 11:33:42;;;;;;;8.55;6.22;;;25.40;45.00;;;;;;4934088;29;20046;-84
2023/09/22 11:36:09;;;;;;;10.63;8.27;;;25.40;44.60;;;;;;4949965;29;20032;-85
2023/09/22 11:38:39;;;;;;;10.60;7.53;;;25.20;44.90;;;;;;4929507;29;20100;-83
2023/09/22 11:41:11;;;;;;;8.73;7.20;;;25.20;44.90;;;;;;4934491;29;20051;-83
2023/09/22 11:43:51;;;;;;;7.70;6.55;;;25.20;45.00;;;;;;4933081;29;20036;-84
2023/09/22 11:46:26;;;;;;;10.10;7.57;;;25.20;44.50;;;;;;4933438;29;20119;-84
2023/09/22 11:49:02;;;;;;;14.68;9.05;;;25.20;44.70;;;;;;4915114;29;20046;-87
2023/09/22 11:51:45;;;;;;;10.70;7.20;;;25.10;45.30;;;;;;4925576;29;20051;-86
2023/09/22 11:54:15;;;;;;;17.10;8.15;;;25.20;45.30;;;;;;4936262;29;20036;-86
2023/09/22 11:56:42;;;;;;;9.98;7.07;;;25.20;45.60;;;;;;4926376;29;20461;-87
2023/09/22 11:59:12;;;;;;;16.58;7.90;;;25.20;45.60;;;;;;4955858;29;20035;-88
2023/09/22 12:01:39;;;;;;;15.77;7.68;;;25.20;45.60;;;;;;4954541;29;20024;-87
2023/09/22 12:04:06;;;;;;;15.80;8.35;;;25.20;45.50;;;;;;4942001;29;20760;-86
2023/09/22 12:06:33;;;;;;;15.13;8.77;;;25.20;45.80;;;;;;4926597;29;20095;-90
2023/09/22 12:08:59;;;;;;;16.67;9.02;;;25.20;45.80;;;;;;4921995;29;20457;-85
2023/09/22 12:11:25;;;;;;;12.10;7.95;;;25.20;45.60;;;;;;4938256;29;20036;-92
2023/09/22 12:13:52;;;;;;;26.15;9.20;;;25.20;45.50;;;;;;4926441;29;20036;-81
2023/09/22 12:16:18;;;;;;;23.50;9.77;;;25.30;45.70;;;;;;4939370;29;20031;-85
2023/09/22 12:18:44;;;;;;;14.93;9.07;;;25.50;45.50;;;;;;4939801;29;20056;-84
2023/09/22 12:21:10;;;;;;;43.75;13.43;;;25.80;45.00;;;;;;4943121;29;20071;-84
2023/09/22 12:23:35;;;;;;;25.13;9.98;;;26.10;44.70;;;;;;4938832;29;20037;-86
2023/09/22 12:26:01;;;;;;;15.65;8.15;;;26.20;44.40;;;;;;4942246;29;20121;-89
2023/09/22 12:28:28;;;;;;;56.60;13.80;;;26.20;44.50;;;;;;4942435;29;20020;-85
2023/09/22 12:30:54;;;;;;;35.25;9.77;;;26.00;44.70;;;;;;4961574;29;20445;-86
2023/09/22 12:33:20;;;;;;;15.70;8.10;;;25.90;45.00;;;;;;4972189;29;20024;-88
2023/09/22 12:35:54;;;;;;;12.00;7.10;;;25.70;45.00;;;;;;4971997;28;20031;-89
2023/09/22 12:38:21;;;;;;;10.48;7.30;;;25.60;45.10;;;;;;4949212;29;20030;-90
2023/09/22 12:40:53;;;;;;;11.30;8.40;;;25.50;45.30;;;;;;4956628;29;20035;-87
2023/09/22 12:43:19;;;;;;;14.55;10.40;;;25.40;45.60;;;;;;4969006;28;20019;-88
2023/09/22 12:45:45;;;;;;;15.20;9.27;;;25.40;46.10;;;;;;4960568;28;20019;-87
2023/09/22 12:48:12;;;;;;;24.80;9.25;;;25.30;46.10;;;;;;4960916;28;20391;-87
2023/09/22 12:50:38;;;;;;;12.80;8.57;;;25.30;46.00;;;;;;4959646;29;20035;-88